sensor_id;sensor_type;location;lat;lon;timestamp;P1;durP1;ratioP1;P2;durP2;ratioP2
47617;SDS011;33336;36.728;-4.414;2022-08-21T00:04:51;7.03;;;2.13;;
47617;SDS011;33336;36.728;-4.414;2022-08-21T00:09:56;2.70;;;1.70;;
47617;SDS011;33336;36.728;-4.414;2022-08-21T00:14:59;5.55;;;2.30;;
47617;SDS011;33336;36.728;-4.414;2022-08-21T00:20:03;5.78;;;2.05;;
47617;SDS011;33336;36.728;-4.414;2022-08-21T00:25:09;3.28;;;2.10;;
47617;SDS011;33336;36.728;-4.414;2022-08-21T00:30:13;4.90;;;2.08;;
47617;SDS011;33336;36.728;-4.414;2022-08-21T00:35:21;4.93;;;2.20;;
47617;SDS011;33336;36.728;-4.414;2022-08-21T00:40:29;4.78;;;1.98;;
47617;SDS011;33336;36.728;-4.414;2022-08-21T00:45:34;4.63;;;2.03;;
47617;SDS011;33336;36.728;-4.414;2022-08-21T00:50:38;7.72;;;1.92;;
47617;SDS011;33336;36.728;-4.414;2022-08-21T00:55:46;4.07;;;1.70;;
47617;SDS011;33336;36.728;-4.414;2022-08-21T01:00:50;7.03;;;2.22;;
47617;SDS011;33336;36.728;-4.414;2022-08-21T01:05:53;3.65;;;1.70;;
47617;SDS011;33336;36.728;-4.414;2022-08-21T01:10:57;6.20;;;1.95;;
47617;SDS011;33336;36.728;-4.414;2022-08-21T01:16:03;3.30;;;1.50;;
47617;SDS011;33336;36.728;-4.414;2022-08-21T01:21:12;4.35;;;1.90;;
47617;SDS011;33336;36.728;-4.414;2022-08-21T01:26:18;4.63;;;1.63;;
47617;SDS011;33336;36.728;-4.414;2022-08-21T01:31:23;4.28;;;1.80;;
47617;SDS011;33336;36.728;-4.414;2022-08-21T01:36:30;3.10;;;1.52;;
47617;SDS011;33336;36.728;-4.414;2022-08-21T01:41:34;5.50;;;1.53;;
47617;SDS011;33336;36.728;-4.414;2022-08-21T01:46:37;4.35;;;2.00;;
47617;SDS011;33336;36.728;-4.414;2022-08-21T01:51:41;8.38;;;1.83;;
47617;SDS011;33336;36.728;-4.414;2022-08-21T01:56:46;6.55;;;1.85;;
47617;SDS011;33336;36.728;-4.414;2022-08-21T02:01:51;2.58;;;1.60;;
47617;SDS011;33336;36.728;-4.414;2022-08-21T02:06:56;4.15;;;2.15;;
47617;SDS011;33336;36.728;-4.414;2022-08-21T02:11:59;2.13;;;1.52;;
47617;SDS011;33336;36.728;-4.414;2022-08-21T02:17:03;5.10;;;2.00;;
47617;SDS011;33336;36.728;-4.414;2022-08-21T02:22:08;5.25;;;1.58;;
47617;SDS011;33336;36.728;-4.414;2022-08-21T02:27:12;5.13;;;2.33;;
47617;SDS011;33336;36.728;-4.414;2022-08-21T02:32:15;3.83;;;1.50;;
47617;SDS011;33336;36.728;-4.414;2022-08-21T02:37:21;10.23;;;2.35;;
47617;SDS011;33336;36.728;-4.414;2022-08-21T02:42:24;3.97;;;1.95;;
47617;SDS011;33336;36.728;-4.414;2022-08-21T02:47:28;6.05;;;1.92;;
47617;SDS011;33336;36.728;-4.414;2022-08-21T02:52:32;1.92;;;1.48;;
47617;SDS011;33336;36.728;-4.414;2022-08-21T02:57:36;2.35;;;1.63;;
47617;SDS011;33336;36.728;-4.414;2022-08-21T03:02:39;2.45;;;1.50;;
47617;SDS011;33336;36.728;-4.414;2022-08-21T03:07:44;3.45;;;1.60;;
47617;SDS011;33336;36.728;-4.414;2022-08-21T03:12:47;2.28;;;1.70;;
47617;SDS011;33336;36.728;-4.414;2022-08-21T03:17:51;2.67;;;1.70;;
47617;SDS011;33336;36.728;-4.414;2022-08-21T03:22:56;4.38;;;2.10;;
47617;SDS011;33336;36.728;-4.414;2022-08-21T03:28:00;3.60;;;1.38;;
47617;SDS011;33336;36.728;-4.414;2022-08-21T03:33:04;4.75;;;1.90;;
47617;SDS011;33336;36.728;-4.414;2022-08-21T03:38:08;3.47;;;1.77;;
47617;SDS011;33336;36.728;-4.414;2022-08-21T03:43:13;2.63;;;1.63;;
47617;SDS011;33336;36.728;-4.414;2022-08-21T03:48:16;3.63;;;2.22;;
47617;SDS011;33336;36.728;-4.414;2022-08-21T03:53:20;5.35;;;1.63;;
47617;SDS011;33336;36.728;-4.414;2022-08-21T03:58:25;3.25;;;1.73;;
47617;SDS011;33336;36.728;-4.414;2022-08-21T04:03:29;2.15;;;1.58;;
47617;SDS011;33336;36.728;-4.414;2022-08-21T04:08:34;5.82;;;1.67;;
47617;SDS011;33336;36.728;-4.414;2022-08-21T04:13:36;2.22;;;1.77;;
47617;SDS011;33336;36.728;-4.414;2022-08-21T04:18:42;2.20;;;1.60;;
47617;SDS011;33336;36.728;-4.414;2022-08-21T04:23:46;3.03;;;1.58;;
47617;SDS011;33336;36.728;-4.414;2022-08-21T04:28:50;3.15;;;1.90;;
47617;SDS011;33336;36.728;-4.414;2022-08-21T04:33:53;3.67;;;1.92;;
47617;SDS011;33336;36.728;-4.414;2022-08-21T04:38:58;2.95;;;1.63;;
47617;SDS011;33336;36.728;-4.414;2022-08-21T04:44:02;2.92;;;1.85;;
47617;SDS011;33336;36.728;-4.414;2022-08-21T04:49:06;1.70;;;1.50;;
47617;SDS011;33336;36.728;-4.414;2022-08-21T04:54:11;4.07;;;1.77;;
47617;SDS011;33336;36.728;-4.414;2022-08-21T04:59:18;6.45;;;1.80;;
47617;SDS011;33336;36.728;-4.414;2022-08-21T05:04:25;7.28;;;1.77;;
47617;SDS011;33336;36.728;-4.414;2022-08-21T05:14:36;3.03;;;1.73;;
47617;SDS011;33336;36.728;-4.414;2022-08-21T05:19:39;2.53;;;1.90;;
47617;SDS011;33336;36.728;-4.414;2022-08-21T05:24:43;3.90;;;1.95;;
47617;SDS011;33336;36.728;-4.414;2022-08-21T05:29:46;2.70;;;2.10;;
47617;SDS011;33336;36.728;-4.414;2022-08-21T05:34:49;4.78;;;1.48;;
47617;SDS011;33336;36.728;-4.414;2022-08-21T05:39:53;4.75;;;2.00;;
47617;SDS011;33336;36.728;-4.414;2022-08-21T05:44:57;5.43;;;2.60;;
47617;SDS011;33336;36.728;-4.414;2022-08-21T05:50:00;2.75;;;1.88;;
47617;SDS011;33336;36.728;-4.414;2022-08-21T05:55:05;3.85;;;1.90;;
47617;SDS011;33336;36.728;-4.414;2022-08-21T06:00:08;4.32;;;2.17;;
47617;SDS011;33336;36.728;-4.414;2022-08-21T06:05:13;3.63;;;2.05;;
47617;SDS011;33336;36.728;-4.414;2022-08-21T06:10:18;6.53;;;2.03;;
47617;SDS011;33336;36.728;-4.414;2022-08-21T06:15:21;2.95;;;1.83;;
47617;SDS011;33336;36.728;-4.414;2022-08-21T06:20:24;6.10;;;1.80;;
47617;SDS011;33336;36.728;-4.414;2022-08-21T06:25:29;5.80;;;2.03;;
47617;SDS011;33336;36.728;-4.414;2022-08-21T06:30:33;4.38;;;2.13;;
47617;SDS011;33336;36.728;-4.414;2022-08-21T06:35:37;4.97;;;1.90;;
47617;SDS011;33336;36.728;-4.414;2022-08-21T06:40:41;8.20;;;2.17;;
47617;SDS011;33336;36.728;-4.414;2022-08-21T06:45:45;4.40;;;2.03;;
47617;SDS011;33336;36.728;-4.414;2022-08-21T06:50:48;6.80;;;2.42;;
47617;SDS011;33336;36.728;-4.414;2022-08-21T06:55:52;2.95;;;1.92;;
47617;SDS011;33336;36.728;-4.414;2022-08-21T07:00:55;5.85;;;1.85;;
47617;SDS011;33336;36.728;-4.414;2022-08-21T07:05:58;5.03;;;1.95;;
47617;SDS011;33336;36.728;-4.414;2022-08-21T07:11:03;3.38;;;1.83;;
47617;SDS011;33336;36.728;-4.414;2022-08-21T07:16:11;5.47;;;1.73;;
47617;SDS011;33336;36.728;-4.414;2022-08-21T07:21:14;11.10;;;2.25;;
47617;SDS011;33336;36.728;-4.414;2022-08-21T07:26:20;6.00;;;2.83;;
47617;SDS011;33336;36.728;-4.414;2022-08-21T07:31:24;6.28;;;2.55;;
47617;SDS011;33336;36.728;-4.414;2022-08-21T07:36:28;3.22;;;2.20;;
47617;SDS011;33336;36.728;-4.414;2022-08-21T07:41:32;8.55;;;3.92;;
47617;SDS011;33336;36.728;-4.414;2022-08-21T07:46:36;4.13;;;2.47;;
47617;SDS011;33336;36.728;-4.414;2022-08-21T07:51:40;4.95;;;1.92;;
47617;SDS011;33336;36.728;-4.414;2022-08-21T07:56:44;6.50;;;1.98;;
47617;SDS011;33336;36.728;-4.414;2022-08-21T08:01:47;5.28;;;2.75;;
47617;SDS011;33336;36.728;-4.414;2022-08-21T08:06:51;6.53;;;2.38;;
47617;SDS011;33336;36.728;-4.414;2022-08-21T08:11:55;5.93;;;2.08;;
47617;SDS011;33336;36.728;-4.414;2022-08-21T08:16:59;4.18;;;2.10;;
47617;SDS011;33336;36.728;-4.414;2022-08-21T08:22:11;5.38;;;2.40;;
47617;SDS011;33336;36.728;-4.414;2022-08-21T08:27:17;11.95;;;3.58;;
47617;SDS011;33336;36.728;-4.414;2022-08-21T08:32:20;11.25;;;3.72;;
47617;SDS011;33336;36.728;-4.414;2022-08-21T08:37:24;13.20;;;3.83;;
47617;SDS011;33336;36.728;-4.414;2022-08-21T08:42:29;16.75;;;4.10;;
47617;SDS011;33336;36.728;-4.414;2022-08-21T08:47:35;10.30;;;3.63;;
47617;SDS011;33336;36.728;-4.414;2022-08-21T08:52:41;10.88;;;2.70;;
47617;SDS011;33336;36.728;-4.414;2022-08-21T08:57:51;6.10;;;2.38;;
47617;SDS011;33336;36.728;-4.414;2022-08-21T09:02:55;6.28;;;2.45;;
47617;SDS011;33336;36.728;-4.414;2022-08-21T09:08:26;3.63;;;1.88;;
47617;SDS011;33336;36.728;-4.414;2022-08-21T09:13:54;3.55;;;2.20;;
47617;SDS011;33336;36.728;-4.414;2022-08-21T09:19:03;7.53;;;2.42;;
47617;SDS011;33336;36.728;-4.414;2022-08-21T09:24:18;2.72;;;1.90;;
47617;SDS011;33336;36.728;-4.414;2022-08-21T09:29:37;3.88;;;1.75;;
47617;SDS011;33336;36.728;-4.414;2022-08-21T09:34:42;6.70;;;2.08;;
47617;SDS011;33336;36.728;-4.414;2022-08-21T09:39:57;7.43;;;1.90;;
47617;SDS011;33336;36.728;-4.414;2022-08-21T09:45:06;3.00;;;2.15;;
47617;SDS011;33336;36.728;-4.414;2022-08-21T09:50:14;10.85;;;2.30;;
47617;SDS011;33336;36.728;-4.414;2022-08-21T09:55:21;4.03;;;2.05;;
47617;SDS011;33336;36.728;-4.414;2022-08-21T10:00:58;8.27;;;1.88;;
47617;SDS011;33336;36.728;-4.414;2022-08-21T10:06:03;7.25;;;2.30;;
47617;SDS011;33336;36.728;-4.414;2022-08-21T10:11:11;5.03;;;2.10;;
47617;SDS011;33336;36.728;-4.414;2022-08-21T10:16:18;6.73;;;2.23;;
47617;SDS011;33336;36.728;-4.414;2022-08-21T10:21:30;3.92;;;1.80;;
47617;SDS011;33336;36.728;-4.414;2022-08-21T10:26:44;4.78;;;2.22;;
47617;SDS011;33336;36.728;-4.414;2022-08-21T10:32:00;12.15;;;2.75;;
47617;SDS011;33336;36.728;-4.414;2022-08-21T10:37:11;6.90;;;2.13;;
47617;SDS011;33336;36.728;-4.414;2022-08-21T10:42:28;5.20;;;2.17;;
47617;SDS011;33336;36.728;-4.414;2022-08-21T10:47:41;9.35;;;2.90;;
47617;SDS011;33336;36.728;-4.414;2022-08-21T10:52:56;3.60;;;1.83;;
47617;SDS011;33336;36.728;-4.414;2022-08-21T10:58:22;7.35;;;2.40;;
47617;SDS011;33336;36.728;-4.414;2022-08-21T11:03:33;6.80;;;2.13;;
47617;SDS011;33336;36.728;-4.414;2022-08-21T11:08:40;7.03;;;2.30;;
47617;SDS011;33336;36.728;-4.414;2022-08-21T11:13:46;4.43;;;2.13;;
47617;SDS011;33336;36.728;-4.414;2022-08-21T11:18:58;3.42;;;2.10;;
47617;SDS011;33336;36.728;-4.414;2022-08-21T11:24:13;5.28;;;2.75;;
47617;SDS011;33336;36.728;-4.414;2022-08-21T11:29:24;3.38;;;1.35;;
47617;SDS011;33336;36.728;-4.414;2022-08-21T11:34:38;5.05;;;1.80;;
47617;SDS011;33336;36.728;-4.414;2022-08-21T11:39:51;4.07;;;1.80;;
47617;SDS011;33336;36.728;-4.414;2022-08-21T11:45:06;6.20;;;1.83;;
47617;SDS011;33336;36.728;-4.414;2022-08-21T11:50:23;7.30;;;2.53;;
47617;SDS011;33336;36.728;-4.414;2022-08-21T11:55:31;6.03;;;2.30;;
47617;SDS011;33336;36.728;-4.414;2022-08-21T12:00:38;4.78;;;2.33;;
47617;SDS011;33336;36.728;-4.414;2022-08-21T12:05:56;3.17;;;1.45;;
47617;SDS011;33336;36.728;-4.414;2022-08-21T12:11:01;4.07;;;2.28;;
47617;SDS011;33336;36.728;-4.414;2022-08-21T12:16:08;3.35;;;1.75;;
47617;SDS011;33336;36.728;-4.414;2022-08-21T12:21:23;4.07;;;1.73;;
47617;SDS011;33336;36.728;-4.414;2022-08-21T12:26:28;3.53;;;1.80;;
47617;SDS011;33336;36.728;-4.414;2022-08-21T12:31:33;7.13;;;2.37;;
47617;SDS011;33336;36.728;-4.414;2022-08-21T12:36:42;9.20;;;1.70;;
47617;SDS011;33336;36.728;-4.414;2022-08-21T12:41:48;5.72;;;1.65;;
47617;SDS011;33336;36.728;-4.414;2022-08-21T12:46:56;1.95;;;1.50;;
47617;SDS011;33336;36.728;-4.414;2022-08-21T12:52:06;4.88;;;1.85;;
47617;SDS011;33336;36.728;-4.414;2022-08-21T12:57:19;4.72;;;1.98;;
47617;SDS011;33336;36.728;-4.414;2022-08-21T13:02:25;6.25;;;2.15;;
47617;SDS011;33336;36.728;-4.414;2022-08-21T13:07:35;3.15;;;1.52;;
47617;SDS011;33336;36.728;-4.414;2022-08-21T13:12:40;5.18;;;2.10;;
47617;SDS011;33336;36.728;-4.414;2022-08-21T13:17:46;7.88;;;2.38;;
47617;SDS011;33336;36.728;-4.414;2022-08-21T13:22:51;2.88;;;1.73;;
47617;SDS011;33336;36.728;-4.414;2022-08-21T13:27:59;4.68;;;1.55;;
47617;SDS011;33336;36.728;-4.414;2022-08-21T13:33:04;6.30;;;2.05;;
47617;SDS011;33336;36.728;-4.414;2022-08-21T13:38:09;5.57;;;2.08;;
47617;SDS011;33336;36.728;-4.414;2022-08-21T13:43:12;3.92;;;1.67;;
47617;SDS011;33336;36.728;-4.414;2022-08-21T13:48:18;5.55;;;2.47;;
47617;SDS011;33336;36.728;-4.414;2022-08-21T13:53:28;8.52;;;2.63;;
47617;SDS011;33336;36.728;-4.414;2022-08-21T13:58:41;7.88;;;3.40;;
47617;SDS011;33336;36.728;-4.414;2022-08-21T14:03:45;5.85;;;2.20;;
47617;SDS011;33336;36.728;-4.414;2022-08-21T14:08:53;14.25;;;4.18;;
47617;SDS011;33336;36.728;-4.414;2022-08-21T14:13:59;4.22;;;2.03;;
47617;SDS011;33336;36.728;-4.414;2022-08-21T14:19:08;4.65;;;1.77;;
47617;SDS011;33336;36.728;-4.414;2022-08-21T14:24:24;8.07;;;2.47;;
47617;SDS011;33336;36.728;-4.414;2022-08-21T14:34:35;7.43;;;2.28;;
47617;SDS011;33336;36.728;-4.414;2022-08-21T14:39:40;4.05;;;1.65;;
47617;SDS011;33336;36.728;-4.414;2022-08-21T14:44:43;4.78;;;2.10;;
47617;SDS011;33336;36.728;-4.414;2022-08-21T14:49:47;5.63;;;2.67;;
47617;SDS011;33336;36.728;-4.414;2022-08-21T14:54:52;1.60;;;1.40;;
47617;SDS011;33336;36.728;-4.414;2022-08-21T14:59:56;6.07;;;2.33;;
47617;SDS011;33336;36.728;-4.414;2022-08-21T15:05:00;6.73;;;2.27;;
47617;SDS011;33336;36.728;-4.414;2022-08-21T15:10:06;4.40;;;1.83;;
47617;SDS011;33336;36.728;-4.414;2022-08-21T15:15:09;6.65;;;2.03;;
47617;SDS011;33336;36.728;-4.414;2022-08-21T15:20:13;5.57;;;1.95;;
47617;SDS011;33336;36.728;-4.414;2022-08-21T15:25:17;2.47;;;1.30;;
47617;SDS011;33336;36.728;-4.414;2022-08-21T15:30:20;4.43;;;1.13;;
47617;SDS011;33336;36.728;-4.414;2022-08-21T15:35:23;2.40;;;1.45;;
47617;SDS011;33336;36.728;-4.414;2022-08-21T15:40:27;3.75;;;1.35;;
47617;SDS011;33336;36.728;-4.414;2022-08-21T15:45:30;2.08;;;0.80;;
47617;SDS011;33336;36.728;-4.414;2022-08-21T15:50:35;2.40;;;1.00;;
47617;SDS011;33336;36.728;-4.414;2022-08-21T15:55:39;3.95;;;1.48;;
47617;SDS011;33336;36.728;-4.414;2022-08-21T16:00:43;1.60;;;0.70;;
47617;SDS011;33336;36.728;-4.414;2022-08-21T16:05:48;5.70;;;1.35;;
47617;SDS011;33336;36.728;-4.414;2022-08-21T16:10:54;3.63;;;1.98;;
47617;SDS011;33336;36.728;-4.414;2022-08-21T16:15:57;5.05;;;1.50;;
47617;SDS011;33336;36.728;-4.414;2022-08-21T16:21:01;2.60;;;1.45;;
47617;SDS011;33336;36.728;-4.414;2022-08-21T16:26:06;2.08;;;0.95;;
47617;SDS011;33336;36.728;-4.414;2022-08-21T16:31:10;2.03;;;0.98;;
47617;SDS011;33336;36.728;-4.414;2022-08-21T16:36:13;3.85;;;1.25;;
47617;SDS011;33336;36.728;-4.414;2022-08-21T16:41:18;1.33;;;0.95;;
47617;SDS011;33336;36.728;-4.414;2022-08-21T16:46:23;2.55;;;1.00;;
47617;SDS011;33336;36.728;-4.414;2022-08-21T16:51:27;3.27;;;1.27;;
47617;SDS011;33336;36.728;-4.414;2022-08-21T16:56:32;4.22;;;1.30;;
47617;SDS011;33336;36.728;-4.414;2022-08-21T17:01:37;6.82;;;1.58;;
47617;SDS011;33336;36.728;-4.414;2022-08-21T17:06:40;5.78;;;1.85;;
47617;SDS011;33336;36.728;-4.414;2022-08-21T17:11:45;4.15;;;2.20;;
47617;SDS011;33336;36.728;-4.414;2022-08-21T17:16:51;3.60;;;1.20;;
47617;SDS011;33336;36.728;-4.414;2022-08-21T17:21:56;2.42;;;1.15;;
47617;SDS011;33336;36.728;-4.414;2022-08-21T17:27:00;3.00;;;1.33;;
47617;SDS011;33336;36.728;-4.414;2022-08-21T17:32:04;3.03;;;1.23;;
47617;SDS011;33336;36.728;-4.414;2022-08-21T17:37:11;4.13;;;2.03;;
47617;SDS011;33336;36.728;-4.414;2022-08-21T17:42:16;4.70;;;2.13;;
47617;SDS011;33336;36.728;-4.414;2022-08-21T17:47:19;4.00;;;1.60;;
47617;SDS011;33336;36.728;-4.414;2022-08-21T17:57:26;4.10;;;1.95;;
47617;SDS011;33336;36.728;-4.414;2022-08-21T18:02:35;3.17;;;1.40;;
47617;SDS011;33336;36.728;-4.414;2022-08-21T18:07:38;7.22;;;2.05;;
47617;SDS011;33336;36.728;-4.414;2022-08-21T18:12:43;6.55;;;2.63;;
47617;SDS011;33336;36.728;-4.414;2022-08-21T18:17:47;5.72;;;2.40;;
47617;SDS011;33336;36.728;-4.414;2022-08-21T18:22:52;4.00;;;2.53;;
47617;SDS011;33336;36.728;-4.414;2022-08-21T18:27:56;4.35;;;2.20;;
47617;SDS011;33336;36.728;-4.414;2022-08-21T18:33:09;3.55;;;1.88;;
47617;SDS011;33336;36.728;-4.414;2022-08-21T18:38:13;4.20;;;1.85;;
47617;SDS011;33336;36.728;-4.414;2022-08-21T18:43:20;6.63;;;2.25;;
47617;SDS011;33336;36.728;-4.414;2022-08-21T18:48:24;11.00;;;4.38;;
47617;SDS011;33336;36.728;-4.414;2022-08-21T18:53:28;8.38;;;3.30;;
47617;SDS011;33336;36.728;-4.414;2022-08-21T18:58:32;8.30;;;2.47;;
47617;SDS011;33336;36.728;-4.414;2022-08-21T19:03:36;7.18;;;2.55;;
47617;SDS011;33336;36.728;-4.414;2022-08-21T19:08:39;10.13;;;2.83;;
47617;SDS011;33336;36.728;-4.414;2022-08-21T19:13:44;4.43;;;1.77;;
47617;SDS011;33336;36.728;-4.414;2022-08-21T19:18:48;10.93;;;4.35;;
47617;SDS011;33336;36.728;-4.414;2022-08-21T19:23:52;5.88;;;2.55;;
47617;SDS011;33336;36.728;-4.414;2022-08-21T19:34:03;33.60;;;14.73;;
47617;SDS011;33336;36.728;-4.414;2022-08-21T19:39:08;7.20;;;2.25;;
47617;SDS011;33336;36.728;-4.414;2022-08-21T19:44:15;8.10;;;2.90;;
47617;SDS011;33336;36.728;-4.414;2022-08-21T19:49:21;7.40;;;3.40;;
47617;SDS011;33336;36.728;-4.414;2022-08-21T19:54:28;4.93;;;1.65;;
47617;SDS011;33336;36.728;-4.414;2022-08-21T19:59:35;6.93;;;2.63;;
47617;SDS011;33336;36.728;-4.414;2022-08-21T20:04:38;3.97;;;1.90;;
47617;SDS011;33336;36.728;-4.414;2022-08-21T20:09:41;6.85;;;2.22;;
47617;SDS011;33336;36.728;-4.414;2022-08-21T20:14:46;8.68;;;2.25;;
47617;SDS011;33336;36.728;-4.414;2022-08-21T20:19:51;6.93;;;2.42;;
47617;SDS011;33336;36.728;-4.414;2022-08-21T20:24:55;8.40;;;2.25;;
47617;SDS011;33336;36.728;-4.414;2022-08-21T20:29:59;6.15;;;2.00;;
47617;SDS011;33336;36.728;-4.414;2022-08-21T20:35:04;6.00;;;2.50;;
47617;SDS011;33336;36.728;-4.414;2022-08-21T20:40:08;5.72;;;2.08;;
47617;SDS011;33336;36.728;-4.414;2022-08-21T20:45:16;7.95;;;3.25;;
47617;SDS011;33336;36.728;-4.414;2022-08-21T20:50:21;4.22;;;3.42;;
47617;SDS011;33336;36.728;-4.414;2022-08-21T20:55:28;4.70;;;3.08;;
47617;SDS011;33336;36.728;-4.414;2022-08-21T21:00:37;12.85;;;4.00;;
47617;SDS011;33336;36.728;-4.414;2022-08-21T21:05:46;7.55;;;3.03;;
47617;SDS011;33336;36.728;-4.414;2022-08-21T21:10:54;6.55;;;3.20;;
47617;SDS011;33336;36.728;-4.414;2022-08-21T21:21:07;7.63;;;2.85;;
47617;SDS011;33336;36.728;-4.414;2022-08-21T21:26:15;15.15;;;5.78;;
47617;SDS011;33336;36.728;-4.414;2022-08-21T21:31:24;12.65;;;5.97;;
47617;SDS011;33336;36.728;-4.414;2022-08-21T21:36:31;11.18;;;4.20;;
47617;SDS011;33336;36.728;-4.414;2022-08-21T21:41:44;7.60;;;4.85;;
47617;SDS011;33336;36.728;-4.414;2022-08-21T21:46:57;10.43;;;4.22;;
47617;SDS011;33336;36.728;-4.414;2022-08-21T21:52:09;8.95;;;4.57;;
47617;SDS011;33336;36.728;-4.414;2022-08-21T21:57:29;10.43;;;4.75;;
47617;SDS011;33336;36.728;-4.414;2022-08-21T22:02:42;7.22;;;4.00;;
47617;SDS011;33336;36.728;-4.414;2022-08-21T22:07:54;11.40;;;4.72;;
47617;SDS011;33336;36.728;-4.414;2022-08-21T22:13:05;11.45;;;4.05;;
47617;SDS011;33336;36.728;-4.414;2022-08-21T22:18:20;8.38;;;3.40;;
47617;SDS011;33336;36.728;-4.414;2022-08-21T22:23:27;12.13;;;5.22;;
47617;SDS011;33336;36.728;-4.414;2022-08-21T22:28:34;6.30;;;2.50;;
47617;SDS011;33336;36.728;-4.414;2022-08-21T22:33:41;5.13;;;3.13;;
47617;SDS011;33336;36.728;-4.414;2022-08-21T22:39:02;9.25;;;3.35;;
47617;SDS011;33336;36.728;-4.414;2022-08-21T22:44:06;8.03;;;3.33;;
47617;SDS011;33336;36.728;-4.414;2022-08-21T22:49:26;8.43;;;5.03;;
47617;SDS011;33336;36.728;-4.414;2022-08-21T22:54:33;7.47;;;5.57;;
47617;SDS011;33336;36.728;-4.414;2022-08-21T23:04:55;13.80;;;8.60;;
47617;SDS011;33336;36.728;-4.414;2022-08-21T23:10:01;12.10;;;7.75;;
47617;SDS011;33336;36.728;-4.414;2022-08-21T23:15:09;9.15;;;5.72;;
47617;SDS011;33336;36.728;-4.414;2022-08-21T23:20:19;8.70;;;6.27;;
47617;SDS011;33336;36.728;-4.414;2022-08-21T23:25:36;13.40;;;7.72;;
47617;SDS011;33336;36.728;-4.414;2022-08-21T23:30:58;9.40;;;7.22;;
47617;SDS011;33336;36.728;-4.414;2022-08-21T23:36:11;14.75;;;7.32;;
47617;SDS011;33336;36.728;-4.414;2022-08-21T23:41:44;11.52;;;7.55;;
47617;SDS011;33336;36.728;-4.414;2022-08-21T23:46:57;10.65;;;7.97;;
47617;SDS011;33336;36.728;-4.414;2022-08-21T23:52:10;9.55;;;6.95;;
47617;SDS011;33336;36.728;-4.414;2022-08-21T23:57:23;11.38;;;8.40;;
